Saturday, February 24, 2018, 3:14 AM EST
Back to Local

KBML, Berlin Municipal Airport

Location: Milan, NH, United States Lat: 44.583
Local Time: 3:14 AM EST ( 8:14 GMT) Lon: -71.183
Time Zone: US/Eastern Elev: 1158 ft

Show me the last for .
Show Decoded

2018-02-24 02:52 METAR KBML 240752Z AUTO 00000KT 7SM OVC011 01/01 A2992 RMK AO2 SLP145 T00110006
                 =
2018-02-24 02:19 METAR KBML 240719Z AUTO 00000KT 7SM BKN013 OVC018 01/01 A2992 RMK AO2 T00110006
                 =
2018-02-24 01:52 METAR KBML 240652Z AUTO 00000KT 9SM OVC016 01/01 A2992 RMK AO2 SLP145 I1004
                 T00110006 =
2018-02-24 00:52 METAR KBML 240552Z AUTO 00000KT 10SM FEW005 OVC022 01/00 A2993 RMK AO2
                 FZRAB17E28 SLP148 P0000 60006 I1001 I6006 T00060000 10006 20000 56027 =
2018-02-24 00:34 METAR KBML 240534Z AUTO 00000KT 10SM FEW014 OVC022 01/00 A2993 RMK AO2
                 FZRAB17E28 P0000 I1001 T00060000 =
2018-02-24 00:23 METAR KBML 240523Z AUTO 00000KT 7SM -FZRA FEW014 OVC022 01/00 A2993 RMK AO2
                 FZRAB17 P0000 I1001 T00060000 =
2018-02-24 00:00 METAR KBML 240500Z AUTO 00000KT 9SM BKN014 OVC020 01/00 A2994 RMK AO2 T00060000
                 =
2018-02-23 23:52 METAR KBML 240452Z AUTO 00000KT 10SM BKN015 OVC020 01/M01 A2994 RMK AO2 SLP153
                 T00061006 400061133 =
2018-02-23 22:52 METAR KBML 240352Z AUTO 00000KT 10SM OVC022 01/M01 A2996 RMK AO2 SLP162
                 T00061006 =
2018-02-23 21:52 METAR KBML 240252Z AUTO 34003KT 10SM OVC022 01/M01 A3001 RMK AO2 SLP179 60006
                 I1000 I3005 T00061006 56040 =
2018-02-23 20:52 METAR KBML 240152Z AUTO 13005KT 10SM SCT016 OVC022 01/M01 A3004 RMK AO2 FZRAE48
                 SLP191 P0002 I1002 T00061011 =
2018-02-23 20:50 METAR KBML 240150Z AUTO 12005KT 10SM SCT016 OVC022 01/M01 A3004 RMK AO2 FZRAE48
                 P0002 I1002 =
2018-02-23 20:17 METAR KBML 240117Z AUTO 17005KT 4SM -FZRA BR BKN014 BKN020 OVC027 00/M01 A3007
                 RMK AO2 P0001 I1001 T00001006 =
2018-02-23 19:52 METAR KBML 240052Z AUTO 16006KT 5SM -FZRA BR OVC018 00/M01 A3009 RMK AO2
                 UPB2359E00B35E37FZRAE2359B00E35B37 SLP210 P0004 I1003 T00001011 =
2018-02-23 19:39 METAR KBML 240039Z AUTO 15007KT 4SM FZRA BR OVC018 00/M02 A3010 RMK AO2
                 UPB2359E00B35E37FZRAE2359B00E35B37 P0003 I1002 T00001017 =
2018-02-23 19:31 METAR KBML 240031Z AUTO 16004KT 10SM OVC021 00/M02 A3010 RMK AO2
                 UPB2359E00FZRAE2359B00E25 P0001 I1001 T00001017 =
2018-02-23 18:52 METAR KBML 232352Z AUTO 16006KT 6SM -FZRA BR BKN027 OVC034 00/M02 A3013 RMK AO2
                 SLP225 P0007 60009 I1007 I6009 T00001017 10000 21006 56047 =
2018-02-23 18:43 METAR KBML 232343Z AUTO 15008G15KT 9SM -FZRA SCT025 OVC034 00/M02 A3012 RMK AO2
                 P0007 I1005 T00001022 =
2018-02-23 18:24 METAR KBML 232324Z AUTO 15010G17KT 6SM -FZRA BR OVC024 00/M02 A3014 RMK AO2
                 P0006 I1005 T00001022 =
2018-02-23 18:04 METAR KBML 232304Z AUTO 15014G19KT 5SM FZRA BR OVC026 M01/M03 A3015 RMK AO2
                 P0002 I1002 T10061028 =
2018-02-23 17:52 METAR KBML 232252Z AUTO 15010KT 6SM -FZRA BR BKN028 OVC034 M01/M03 A3017 RMK AO2
                 UPE33FZRAB33 SLP237 P0002 I1002 T10061028 =
2018-02-23 17:39 METAR KBML 232239Z AUTO 16011G17KT 5SM -FZRA BKN028 OVC034 M01/M03 A3017 RMK AO2
                 UPE33FZRAB33 P0001 I1001 T10061033 =
2018-02-23 16:52 METAR KBML 232152Z AUTO 15010G15KT 10SM UP OVC037 M01/M05 A3021 RMK AO2 UPB05
                 SLP251 P0000 T10061050 =
2018-02-23 15:52 METAR KBML 232052Z AUTO 15010G17KT 10SM OVC044 00/M08 A3028 RMK AO2 UPB31E40
                 SLP273 P0000 60000 T00001083 56054 =
2018-02-23 14:52 METAR KBML 231952Z AUTO 14014G23KT 10SM BKN070 OVC090 00/M10 A3032 RMK AO2
                 SLP289 T00001100 =
2018-02-23 13:52 METAR KBML 231852Z AUTO 15010G18KT 10SM BKN090 M01/M12 A3037 RMK AO2 SLP304
                 T10061117 =
2018-02-23 12:52 METAR KBML 231752Z AUTO 14008KT 10SM OVC095 M01/M12 A3044 RMK AO2 SLP328
                 T10061117 10000 21133 58043 =
2018-02-23 11:52 METAR KBML 231652Z AUTO 14009KT 10SM BKN110 M01/M12 A3048 RMK AO2 SLP343
                 T10061117 =
2018-02-23 10:52 METAR KBML 231552Z AUTO 00000KT 10SM CLR M02/M11 A3053 RMK AO2 SLP361 T10171111
                 =
2018-02-23 09:52 METAR KBML 231452Z AUTO 36003KT 10SM CLR M04/M11 A3057 RMK AO2 SLP375 T10441106
                 58019 =
2018-02-23 08:52 METAR KBML 231352Z AUTO 34003KT 10SM CLR M07/M11 A3059 RMK AO2 SLP383 T10671111
                 =
2018-02-23 06:52 METAR KBML 231152Z AUTO 00000KT 10SM CLR M13/M15 A3063 RMK AO2 SLP396 I6000
                 T11281150 11094 21133 58009 =
2018-02-23 05:52 METAR KBML 231052Z AUTO 00000KT 10SM CLR M13/M16 A3064 RMK AO2 SLP400 I1000
                 T11331156 =
2018-02-23 04:52 METAR KBML 230952Z AUTO 00000KT 10SM CLR M12/M14 A3066 RMK AO2 SLP405 I1000
                 T11221144 =
2018-02-23 03:52 METAR KBML 230852Z AUTO 00000KT 10SM CLR M11/M13 A3066 RMK AO2 SLP403 I1000
                 I3000 T11111133 55006 =

Support USWX by starting your Amazon purchase here.